sensor_id;sensor_type;location;lat;lon;timestamp;P1;durP1;ratioP1;P2;durP2;ratioP2
57697;SDS011;43531;52.152;6.366;2023-07-20T00:00:09;7.95;;;5.00;;
57697;SDS011;43531;52.152;6.366;2023-07-20T00:00:45;6.53;;;4.53;;
57697;SDS011;43531;52.152;6.366;2023-07-20T00:01:16;5.28;;;4.65;;
57697;SDS011;43531;52.152;6.366;2023-07-20T00:01:48;5.57;;;5.05;;
57697;SDS011;43531;52.152;6.366;2023-07-20T00:02:19;6.00;;;4.82;;
57697;SDS011;43531;52.152;6.366;2023-07-20T00:02:51;6.32;;;4.80;;
57697;SDS011;43531;52.152;6.366;2023-07-20T00:03:23;7.85;;;5.05;;
57697;SDS011;43531;52.152;6.366;2023-07-20T00:03:56;7.45;;;5.13;;
57697;SDS011;43531;52.152;6.366;2023-07-20T00:04:28;7.10;;;5.38;;
57697;SDS011;43531;52.152;6.366;2023-07-20T00:05:00;6.15;;;5.45;;
57697;SDS011;43531;52.152;6.366;2023-07-20T00:05:31;5.55;;;4.97;;
57697;SDS011;43531;52.152;6.366;2023-07-20T00:06:03;5.22;;;4.70;;
57697;SDS011;43531;52.152;6.366;2023-07-20T00:06:35;6.90;;;5.70;;
57697;SDS011;43531;52.152;6.366;2023-07-20T00:07:07;6.30;;;4.30;;
57697;SDS011;43531;52.152;6.366;2023-07-20T00:07:38;6.13;;;5.55;;
57697;SDS011;43531;52.152;6.366;2023-07-20T00:08:10;6.90;;;5.13;;
57697;SDS011;43531;52.152;6.366;2023-07-20T00:08:41;7.50;;;5.40;;
57697;SDS011;43531;52.152;6.366;2023-07-20T00:09:13;5.70;;;4.97;;
57697;SDS011;43531;52.152;6.366;2023-07-20T00:09:45;7.45;;;5.38;;
57697;SDS011;43531;52.152;6.366;2023-07-20T00:10:16;7.22;;;5.57;;
57697;SDS011;43531;52.152;6.366;2023-07-20T00:10:48;7.72;;;5.72;;
57697;SDS011;43531;52.152;6.366;2023-07-20T00:11:20;6.47;;;5.80;;
57697;SDS011;43531;52.152;6.366;2023-07-20T00:11:52;5.72;;;5.03;;
57697;SDS011;43531;52.152;6.366;2023-07-20T00:12:24;6.57;;;5.60;;
57697;SDS011;43531;52.152;6.366;2023-07-20T00:12:56;6.28;;;4.68;;
57697;SDS011;43531;52.152;6.366;2023-07-20T00:13:27;6.35;;;4.68;;
57697;SDS011;43531;52.152;6.366;2023-07-20T00:13:59;6.07;;;4.88;;
57697;SDS011;43531;52.152;6.366;2023-07-20T00:14:31;5.40;;;4.50;;
57697;SDS011;43531;52.152;6.366;2023-07-20T00:15:03;6.05;;;4.53;;
57697;SDS011;43531;52.152;6.366;2023-07-20T00:15:35;5.47;;;4.75;;
57697;SDS011;43531;52.152;6.366;2023-07-20T00:16:07;4.78;;;4.38;;
57697;SDS011;43531;52.152;6.366;2023-07-20T00:16:39;5.47;;;4.82;;
57697;SDS011;43531;52.152;6.366;2023-07-20T00:17:10;4.47;;;4.07;;
57697;SDS011;43531;52.152;6.366;2023-07-20T00:17:42;5.43;;;4.50;;
57697;SDS011;43531;52.152;6.366;2023-07-20T00:18:14;6.50;;;3.85;;
57697;SDS011;43531;52.152;6.366;2023-07-20T00:18:46;9.35;;;4.43;;
57697;SDS011;43531;52.152;6.366;2023-07-20T00:19:17;7.38;;;3.80;;
57697;SDS011;43531;52.152;6.366;2023-07-20T00:19:49;5.05;;;4.63;;
57697;SDS011;43531;52.152;6.366;2023-07-20T00:20:21;4.43;;;3.97;;
57697;SDS011;43531;52.152;6.366;2023-07-20T00:20:54;7.13;;;5.15;;
57697;SDS011;43531;52.152;6.366;2023-07-20T00:21:26;5.50;;;4.30;;
57697;SDS011;43531;52.152;6.366;2023-07-20T00:21:58;6.28;;;4.20;;
57697;SDS011;43531;52.152;6.366;2023-07-20T00:22:29;4.75;;;4.10;;
57697;SDS011;43531;52.152;6.366;2023-07-20T00:23:01;6.75;;;3.90;;
57697;SDS011;43531;52.152;6.366;2023-07-20T00:23:33;6.15;;;4.50;;
57697;SDS011;43531;52.152;6.366;2023-07-20T00:24:07;5.13;;;4.63;;
57697;SDS011;43531;52.152;6.366;2023-07-20T00:24:38;9.27;;;4.55;;
57697;SDS011;43531;52.152;6.366;2023-07-20T00:25:10;8.07;;;4.70;;
57697;SDS011;43531;52.152;6.366;2023-07-20T00:25:46;5.00;;;4.60;;
57697;SDS011;43531;52.152;6.366;2023-07-20T00:26:18;6.07;;;4.28;;
57697;SDS011;43531;52.152;6.366;2023-07-20T00:26:50;5.43;;;4.40;;
57697;SDS011;43531;52.152;6.366;2023-07-20T00:27:22;4.50;;;4.20;;
57697;SDS011;43531;52.152;6.366;2023-07-20T00:27:53;11.50;;;4.55;;
57697;SDS011;43531;52.152;6.366;2023-07-20T00:28:25;6.50;;;4.57;;
57697;SDS011;43531;52.152;6.366;2023-07-20T00:28:56;5.47;;;4.63;;
57697;SDS011;43531;52.152;6.366;2023-07-20T00:29:28;4.70;;;4.18;;
57697;SDS011;43531;52.152;6.366;2023-07-20T00:30:07;6.13;;;4.10;;
57697;SDS011;43531;52.152;6.366;2023-07-20T00:30:39;7.00;;;4.32;;
57697;SDS011;43531;52.152;6.366;2023-07-20T00:31:14;6.15;;;4.68;;
57697;SDS011;43531;52.152;6.366;2023-07-20T00:31:46;9.10;;;4.80;;
57697;SDS011;43531;52.152;6.366;2023-07-20T00:32:19;6.95;;;4.50;;
57697;SDS011;43531;52.152;6.366;2023-07-20T00:32:51;5.00;;;4.35;;
57697;SDS011;43531;52.152;6.366;2023-07-20T00:33:22;6.47;;;4.75;;
57697;SDS011;43531;52.152;6.366;2023-07-20T00:33:54;4.60;;;4.20;;
57697;SDS011;43531;52.152;6.366;2023-07-20T00:34:25;4.20;;;3.75;;
57697;SDS011;43531;52.152;6.366;2023-07-20T00:34:58;4.55;;;4.15;;
57697;SDS011;43531;52.152;6.366;2023-07-20T00:35:29;4.93;;;4.07;;
57697;SDS011;43531;52.152;6.366;2023-07-20T00:36:01;4.13;;;3.72;;
57697;SDS011;43531;52.152;6.366;2023-07-20T00:36:33;4.32;;;3.72;;
57697;SDS011;43531;52.152;6.366;2023-07-20T00:37:06;5.78;;;4.28;;
57697;SDS011;43531;52.152;6.366;2023-07-20T00:37:38;4.50;;;4.10;;
57697;SDS011;43531;52.152;6.366;2023-07-20T00:38:10;5.10;;;4.60;;
57697;SDS011;43531;52.152;6.366;2023-07-20T00:38:42;5.88;;;4.03;;
57697;SDS011;43531;52.152;6.366;2023-07-20T00:39:14;5.10;;;4.68;;
57697;SDS011;43531;52.152;6.366;2023-07-20T00:39:46;6.68;;;4.30;;
57697;SDS011;43531;52.152;6.366;2023-07-20T00:40:17;5.13;;;4.65;;
57697;SDS011;43531;52.152;6.366;2023-07-20T00:40:49;5.57;;;4.63;;
57697;SDS011;43531;52.152;6.366;2023-07-20T00:41:21;4.82;;;4.35;;
57697;SDS011;43531;52.152;6.366;2023-07-20T00:41:53;8.48;;;3.55;;
57697;SDS011;43531;52.152;6.366;2023-07-20T00:42:25;4.95;;;4.55;;
57697;SDS011;43531;52.152;6.366;2023-07-20T00:42:56;5.57;;;4.40;;
57697;SDS011;43531;52.152;6.366;2023-07-20T00:43:28;3.95;;;3.60;;
57697;SDS011;43531;52.152;6.366;2023-07-20T00:44:00;7.15;;;4.28;;
57697;SDS011;43531;52.152;6.366;2023-07-20T00:44:31;5.93;;;4.35;;
57697;SDS011;43531;52.152;6.366;2023-07-20T00:45:03;5.70;;;3.97;;
57697;SDS011;43531;52.152;6.366;2023-07-20T00:45:36;8.13;;;4.68;;
57697;SDS011;43531;52.152;6.366;2023-07-20T00:46:08;5.47;;;4.07;;
57697;SDS011;43531;52.152;6.366;2023-07-20T00:46:40;5.38;;;4.78;;
57697;SDS011;43531;52.152;6.366;2023-07-20T00:47:13;5.13;;;4.72;;
57697;SDS011;43531;52.152;6.366;2023-07-20T00:47:45;4.50;;;3.92;;
57697;SDS011;43531;52.152;6.366;2023-07-20T00:48:18;4.32;;;3.92;;
57697;SDS011;43531;52.152;6.366;2023-07-20T00:48:49;4.18;;;3.78;;
57697;SDS011;43531;52.152;6.366;2023-07-20T00:49:21;4.32;;;3.80;;
57697;SDS011;43531;52.152;6.366;2023-07-20T00:49:54;4.38;;;3.97;;
57697;SDS011;43531;52.152;6.366;2023-07-20T00:50:25;5.70;;;3.85;;
57697;SDS011;43531;52.152;6.366;2023-07-20T00:50:58;6.22;;;4.80;;
57697;SDS011;43531;52.152;6.366;2023-07-20T00:51:30;5.75;;;4.15;;
57697;SDS011;43531;52.152;6.366;2023-07-20T00:52:02;4.30;;;3.90;;
57697;SDS011;43531;52.152;6.366;2023-07-20T00:52:34;4.65;;;4.25;;
57697;SDS011;43531;52.152;6.366;2023-07-20T00:53:06;4.72;;;4.28;;
57697;SDS011;43531;52.152;6.366;2023-07-20T00:53:38;5.65;;;3.80;;
57697;SDS011;43531;52.152;6.366;2023-07-20T00:54:10;6.25;;;4.22;;
57697;SDS011;43531;52.152;6.366;2023-07-20T00:54:42;4.75;;;4.20;;
57697;SDS011;43531;52.152;6.366;2023-07-20T00:55:14;3.58;;;3.28;;
57697;SDS011;43531;52.152;6.366;2023-07-20T00:55:45;4.38;;;4.07;;
57697;SDS011;43531;52.152;6.366;2023-07-20T00:56:17;5.93;;;4.68;;
57697;SDS011;43531;52.152;6.366;2023-07-20T00:56:49;4.85;;;4.45;;
57697;SDS011;43531;52.152;6.366;2023-07-20T00:57:21;4.70;;;3.63;;
57697;SDS011;43531;52.152;6.366;2023-07-20T00:57:54;8.65;;;4.75;;
57697;SDS011;43531;52.152;6.366;2023-07-20T00:58:25;4.50;;;4.10;;
57697;SDS011;43531;52.152;6.366;2023-07-20T00:58:57;5.40;;;4.25;;
57697;SDS011;43531;52.152;6.366;2023-07-20T00:59:29;4.40;;;4.00;;
57697;SDS011;43531;52.152;6.366;2023-07-20T01:00:01;5.85;;;4.50;;
57697;SDS011;43531;52.152;6.366;2023-07-20T01:00:33;4.47;;;4.07;;
57697;SDS011;43531;52.152;6.366;2023-07-20T01:01:04;5.53;;;3.85;;
57697;SDS011;43531;52.152;6.366;2023-07-20T01:01:39;4.70;;;4.30;;
57697;SDS011;43531;52.152;6.366;2023-07-20T01:02:12;5.30;;;4.32;;
57697;SDS011;43531;52.152;6.366;2023-07-20T01:02:44;4.45;;;4.03;;
57697;SDS011;43531;52.152;6.366;2023-07-20T01:03:17;5.50;;;4.97;;
57697;SDS011;43531;52.152;6.366;2023-07-20T01:03:48;5.82;;;5.25;;
57697;SDS011;43531;52.152;6.366;2023-07-20T01:04:20;4.85;;;3.75;;
57697;SDS011;43531;52.152;6.366;2023-07-20T01:04:52;4.25;;;3.78;;
57697;SDS011;43531;52.152;6.366;2023-07-20T01:05:25;7.32;;;3.83;;
57697;SDS011;43531;52.152;6.366;2023-07-20T01:06:09;4.07;;;3.78;;
57697;SDS011;43531;52.152;6.366;2023-07-20T01:06:56;5.47;;;4.30;;
57697;SDS011;43531;52.152;6.366;2023-07-20T01:07:31;3.95;;;3.55;;
57697;SDS011;43531;52.152;6.366;2023-07-20T01:08:16;6.28;;;3.67;;
57697;SDS011;43531;52.152;6.366;2023-07-20T01:09:52;4.50;;;4.10;;
57697;SDS011;43531;52.152;6.366;2023-07-20T01:10:52;4.85;;;4.10;;
57697;SDS011;43531;52.152;6.366;2023-07-20T01:11:59;4.75;;;4.10;;
57697;SDS011;43531;52.152;6.366;2023-07-20T01:12:40;5.10;;;3.45;;
57697;SDS011;43531;52.152;6.366;2023-07-20T01:13:14;4.60;;;4.00;;
57697;SDS011;43531;52.152;6.366;2023-07-20T01:13:46;4.88;;;4.40;;
57697;SDS011;43531;52.152;6.366;2023-07-20T01:14:18;4.50;;;3.65;;
57697;SDS011;43531;52.152;6.366;2023-07-20T01:14:50;9.18;;;4.53;;
57697;SDS011;43531;52.152;6.366;2023-07-20T01:15:22;4.43;;;4.03;;
57697;SDS011;43531;52.152;6.366;2023-07-20T01:15:56;4.80;;;4.35;;
57697;SDS011;43531;52.152;6.366;2023-07-20T01:16:30;5.95;;;3.97;;
57697;SDS011;43531;52.152;6.366;2023-07-20T01:17:02;4.63;;;3.92;;
57697;SDS011;43531;52.152;6.366;2023-07-20T01:17:34;4.82;;;4.40;;
57697;SDS011;43531;52.152;6.366;2023-07-20T01:18:06;5.55;;;4.45;;
57697;SDS011;43531;52.152;6.366;2023-07-20T01:18:38;3.63;;;3.33;;
57697;SDS011;43531;52.152;6.366;2023-07-20T01:19:12;6.25;;;4.05;;
57697;SDS011;43531;52.152;6.366;2023-07-20T01:19:45;4.45;;;4.05;;
57697;SDS011;43531;52.152;6.366;2023-07-20T01:20:18;5.05;;;4.13;;
57697;SDS011;43531;52.152;6.366;2023-07-20T01:20:50;4.28;;;3.97;;
57697;SDS011;43531;52.152;6.366;2023-07-20T01:21:26;4.13;;;3.83;;
57697;SDS011;43531;52.152;6.366;2023-07-20T01:22:09;4.25;;;3.85;;
57697;SDS011;43531;52.152;6.366;2023-07-20T01:22:50;4.32;;;3.40;;
57697;SDS011;43531;52.152;6.366;2023-07-20T01:25:07;5.40;;;3.70;;
57697;SDS011;43531;52.152;6.366;2023-07-20T01:26:48;6.68;;;6.07;;
57697;SDS011;43531;52.152;6.366;2023-07-20T01:29:55;5.07;;;4.68;;
57697;SDS011;43531;52.152;6.366;2023-07-20T01:32:00;4.72;;;3.85;;
57697;SDS011;43531;52.152;6.366;2023-07-20T01:32:35;4.50;;;3.95;;
57697;SDS011;43531;52.152;6.366;2023-07-20T01:33:08;4.15;;;3.85;;
57697;SDS011;43531;52.152;6.366;2023-07-20T01:33:40;18.23;;;6.70;;
57697;SDS011;43531;52.152;6.366;2023-07-20T01:34:14;8.43;;;4.60;;
57697;SDS011;43531;52.152;6.366;2023-07-20T01:34:47;5.43;;;3.92;;
57697;SDS011;43531;52.152;6.366;2023-07-20T01:35:20;5.13;;;4.47;;
57697;SDS011;43531;52.152;6.366;2023-07-20T01:35:56;4.60;;;4.20;;
57697;SDS011;43531;52.152;6.366;2023-07-20T01:36:30;4.95;;;4.45;;
57697;SDS011;43531;52.152;6.366;2023-07-20T01:37:05;5.55;;;4.82;;
57697;SDS011;43531;52.152;6.366;2023-07-20T01:37:37;6.78;;;5.38;;
57697;SDS011;43531;52.152;6.366;2023-07-20T01:38:10;4.68;;;4.20;;
57697;SDS011;43531;52.152;6.366;2023-07-20T01:38:43;4.70;;;4.28;;
57697;SDS011;43531;52.152;6.366;2023-07-20T01:39:15;5.82;;;4.82;;
57697;SDS011;43531;52.152;6.366;2023-07-20T01:39:47;3.92;;;3.63;;
57697;SDS011;43531;52.152;6.366;2023-07-20T01:40:19;4.00;;;3.60;;
57697;SDS011;43531;52.152;6.366;2023-07-20T01:40:51;4.30;;;3.90;;
57697;SDS011;43531;52.152;6.366;2023-07-20T01:41:23;4.35;;;3.83;;
57697;SDS011;43531;52.152;6.366;2023-07-20T01:41:55;4.70;;;4.22;;
57697;SDS011;43531;52.152;6.366;2023-07-20T01:42:27;4.88;;;4.47;;
57697;SDS011;43531;52.152;6.366;2023-07-20T01:42:58;5.65;;;4.28;;
57697;SDS011;43531;52.152;6.366;2023-07-20T01:43:30;6.75;;;4.20;;
57697;SDS011;43531;52.152;6.366;2023-07-20T01:44:03;4.47;;;4.07;;
57697;SDS011;43531;52.152;6.366;2023-07-20T01:44:36;5.30;;;4.80;;
57697;SDS011;43531;52.152;6.366;2023-07-20T01:45:08;4.45;;;4.05;;
57697;SDS011;43531;52.152;6.366;2023-07-20T01:45:40;4.65;;;4.25;;
57697;SDS011;43531;52.152;6.366;2023-07-20T01:46:12;3.92;;;3.63;;
57697;SDS011;43531;52.152;6.366;2023-07-20T01:46:43;5.15;;;4.28;;
57697;SDS011;43531;52.152;6.366;2023-07-20T01:47:15;6.03;;;4.28;;
57697;SDS011;43531;52.152;6.366;2023-07-20T01:47:47;5.60;;;4.68;;
57697;SDS011;43531;52.152;6.366;2023-07-20T01:48:19;8.63;;;3.95;;
57697;SDS011;43531;52.152;6.366;2023-07-20T01:48:51;4.53;;;4.13;;
57697;SDS011;43531;52.152;6.366;2023-07-20T01:49:23;4.65;;;4.25;;
57697;SDS011;43531;52.152;6.366;2023-07-20T01:49:55;4.82;;;4.40;;
57697;SDS011;43531;52.152;6.366;2023-07-20T01:50:26;8.32;;;4.20;;
57697;SDS011;43531;52.152;6.366;2023-07-20T01:50:58;4.25;;;3.85;;
57697;SDS011;43531;52.152;6.366;2023-07-20T01:51:30;6.47;;;4.20;;
57697;SDS011;43531;52.152;6.366;2023-07-20T01:52:02;4.57;;;4.10;;
57697;SDS011;43531;52.152;6.366;2023-07-20T01:52:34;4.82;;;3.47;;
57697;SDS011;43531;52.152;6.366;2023-07-20T01:53:07;4.25;;;3.80;;
57697;SDS011;43531;52.152;6.366;2023-07-20T01:53:39;4.68;;;3.67;;
57697;SDS011;43531;52.152;6.366;2023-07-20T01:54:11;5.13;;;4.25;;
57697;SDS011;43531;52.152;6.366;2023-07-20T01:54:42;4.63;;;4.10;;
57697;SDS011;43531;52.152;6.366;2023-07-20T01:55:14;4.38;;;4.07;;
57697;SDS011;43531;52.152;6.366;2023-07-20T01:55:45;4.25;;;3.67;;
57697;SDS011;43531;52.152;6.366;2023-07-20T01:56:17;4.22;;;3.85;;
57697;SDS011;43531;52.152;6.366;2023-07-20T01:56:49;5.10;;;4.60;;
57697;SDS011;43531;52.152;6.366;2023-07-20T01:57:21;7.03;;;3.45;;
57697;SDS011;43531;52.152;6.366;2023-07-20T01:57:52;4.80;;;4.35;;
57697;SDS011;43531;52.152;6.366;2023-07-20T01:58:26;5.15;;;3.72;;
57697;SDS011;43531;52.152;6.366;2023-07-20T01:58:58;4.28;;;3.65;;
57697;SDS011;43531;52.152;6.366;2023-07-20T01:59:30;5.03;;;4.13;;
57697;SDS011;43531;52.152;6.366;2023-07-20T02:00:02;5.18;;;2.97;;
57697;SDS011;43531;52.152;6.366;2023-07-20T02:00:44;4.10;;;3.70;;
57697;SDS011;43531;52.152;6.366;2023-07-20T02:01:16;4.38;;;3.67;;
57697;SDS011;43531;52.152;6.366;2023-07-20T02:01:47;4.53;;;4.13;;
57697;SDS011;43531;52.152;6.366;2023-07-20T02:02:19;4.85;;;3.58;;
57697;SDS011;43531;52.152;6.366;2023-07-20T02:02:52;3.67;;;3.40;;
57697;SDS011;43531;52.152;6.366;2023-07-20T02:03:23;3.70;;;3.40;;
57697;SDS011;43531;52.152;6.366;2023-07-20T02:03:57;4.10;;;3.60;;
57697;SDS011;43531;52.152;6.366;2023-07-20T02:04:28;3.90;;;3.55;;
57697;SDS011;43531;52.152;6.366;2023-07-20T02:05:00;3.10;;;2.80;;
57697;SDS011;43531;52.152;6.366;2023-07-20T02:05:32;3.53;;;3.22;;
57697;SDS011;43531;52.152;6.366;2023-07-20T02:06:03;3.25;;;2.85;;
57697;SDS011;43531;52.152;6.366;2023-07-20T02:06:35;3.92;;;3.40;;
57697;SDS011;43531;52.152;6.366;2023-07-20T02:07:07;3.35;;;3.00;;
57697;SDS011;43531;52.152;6.366;2023-07-20T02:07:38;3.55;;;3.25;;
57697;SDS011;43531;52.152;6.366;2023-07-20T02:08:10;3.38;;;3.08;;
57697;SDS011;43531;52.152;6.366;2023-07-20T02:08:42;4.18;;;2.95;;
57697;SDS011;43531;52.152;6.366;2023-07-20T02:09:13;4.20;;;3.80;;
57697;SDS011;43531;52.152;6.366;2023-07-20T02:09:45;4.15;;;3.25;;
57697;SDS011;43531;52.152;6.366;2023-07-20T02:10:17;9.93;;;2.92;;
57697;SDS011;43531;52.152;6.366;2023-07-20T02:10:49;5.68;;;3.25;;
57697;SDS011;43531;52.152;6.366;2023-07-20T02:11:21;3.72;;;3.42;;
57697;SDS011;43531;52.152;6.366;2023-07-20T02:11:52;2.83;;;2.63;;
57697;SDS011;43531;52.152;6.366;2023-07-20T02:12:24;3.75;;;3.45;;
57697;SDS011;43531;52.152;6.366;2023-07-20T02:12:56;3.80;;;3.50;;
57697;SDS011;43531;52.152;6.366;2023-07-20T02:13:27;3.20;;;2.90;;
57697;SDS011;43531;52.152;6.366;2023-07-20T02:13:59;3.60;;;3.30;;
57697;SDS011;43531;52.152;6.366;2023-07-20T02:14:30;4.75;;;3.63;;
57697;SDS011;43531;52.152;6.366;2023-07-20T02:15:02;3.00;;;2.80;;
57697;SDS011;43531;52.152;6.366;2023-07-20T02:15:34;3.53;;;3.22;;
57697;SDS011;43531;52.152;6.366;2023-07-20T02:16:06;2.90;;;2.70;;
57697;SDS011;43531;52.152;6.366;2023-07-20T02:16:38;3.15;;;2.95;;
57697;SDS011;43531;52.152;6.366;2023-07-20T02:17:09;3.35;;;3.05;;
57697;SDS011;43531;52.152;6.366;2023-07-20T02:17:44;3.78;;;2.97;;
57697;SDS011;43531;52.152;6.366;2023-07-20T02:18:16;6.85;;;3.05;;
57697;SDS011;43531;52.152;6.366;2023-07-20T02:18:47;3.30;;;2.97;;
57697;SDS011;43531;52.152;6.366;2023-07-20T02:19:19;6.13;;;3.20;;
57697;SDS011;43531;52.152;6.366;2023-07-20T02:19:55;2.65;;;2.45;;
57697;SDS011;43531;52.152;6.366;2023-07-20T02:20:27;3.28;;;2.97;;
57697;SDS011;43531;52.152;6.366;2023-07-20T02:20:59;6.15;;;3.17;;
57697;SDS011;43531;52.152;6.366;2023-07-20T02:21:31;3.63;;;2.67;;
57697;SDS011;43531;52.152;6.366;2023-07-20T02:22:02;3.63;;;3.30;;
57697;SDS011;43531;52.152;6.366;2023-07-20T02:22:34;3.17;;;2.85;;
57697;SDS011;43531;52.152;6.366;2023-07-20T02:23:08;3.47;;;3.17;;
57697;SDS011;43531;52.152;6.366;2023-07-20T02:23:41;5.35;;;2.97;;
57697;SDS011;43531;52.152;6.366;2023-07-20T02:24:13;3.17;;;2.88;;
57697;SDS011;43531;52.152;6.366;2023-07-20T02:24:44;3.40;;;3.08;;
57697;SDS011;43531;52.152;6.366;2023-07-20T02:25:16;5.18;;;3.78;;
57697;SDS011;43531;52.152;6.366;2023-07-20T02:25:48;2.92;;;2.72;;
57697;SDS011;43531;52.152;6.366;2023-07-20T02:26:19;4.35;;;2.97;;
57697;SDS011;43531;52.152;6.366;2023-07-20T02:26:51;3.45;;;3.15;;
57697;SDS011;43531;52.152;6.366;2023-07-20T02:27:23;3.40;;;2.90;;
57697;SDS011;43531;52.152;6.366;2023-07-20T02:27:55;3.15;;;2.92;;
57697;SDS011;43531;52.152;6.366;2023-07-20T02:28:27;3.83;;;3.47;;
57697;SDS011;43531;52.152;6.366;2023-07-20T02:29:00;3.45;;;3.15;;
57697;SDS011;43531;52.152;6.366;2023-07-20T02:29:32;3.25;;;2.80;;
57697;SDS011;43531;52.152;6.366;2023-07-20T02:30:04;3.72;;;2.92;;
57697;SDS011;43531;52.152;6.366;2023-07-20T02:30:38;3.38;;;3.08;;
57697;SDS011;43531;52.152;6.366;2023-07-20T02:31:13;3.35;;;3.05;;
57697;SDS011;43531;52.152;6.366;2023-07-20T02:31:44;4.57;;;2.60;;
57697;SDS011;43531;52.152;6.366;2023-07-20T02:32:16;2.75;;;2.55;;
57697;SDS011;43531;52.152;6.366;2023-07-20T02:32:48;2.78;;;2.58;;
57697;SDS011;43531;52.152;6.366;2023-07-20T02:33:20;3.33;;;3.03;;
57697;SDS011;43531;52.152;6.366;2023-07-20T02:33:52;2.88;;;2.67;;
57697;SDS011;43531;52.152;6.366;2023-07-20T02:34:24;4.30;;;2.80;;
57697;SDS011;43531;52.152;6.366;2023-07-20T02:34:56;3.17;;;2.88;;
57697;SDS011;43531;52.152;6.366;2023-07-20T02:35:27;2.83;;;2.63;;
57697;SDS011;43531;52.152;6.366;2023-07-20T02:35:59;2.97;;;2.50;;
57697;SDS011;43531;52.152;6.366;2023-07-20T02:36:31;3.10;;;2.20;;
57697;SDS011;43531;52.152;6.366;2023-07-20T02:37:04;3.28;;;2.92;;
57697;SDS011;43531;52.152;6.366;2023-07-20T02:37:36;3.45;;;3.15;;
57697;SDS011;43531;52.152;6.366;2023-07-20T02:38:08;2.15;;;1.98;;
57697;SDS011;43531;52.152;6.366;2023-07-20T02:38:39;2.97;;;2.75;;
57697;SDS011;43531;52.152;6.366;2023-07-20T02:39:11;2.25;;;2.15;;
57697;SDS011;43531;52.152;6.366;2023-07-20T02:39:43;2.83;;;2.63;;
57697;SDS011;43531;52.152;6.366;2023-07-20T02:40:15;2.95;;;2.75;;
57697;SDS011;43531;52.152;6.366;2023-07-20T02:40:47;3.17;;;2.88;;
57697;SDS011;43531;52.152;6.366;2023-07-20T02:41:19;2.95;;;2.67;;
57697;SDS011;43531;52.152;6.366;2023-07-20T02:41:50;4.78;;;2.50;;
57697;SDS011;43531;52.152;6.366;2023-07-20T02:42:22;2.42;;;2.25;;
57697;SDS011;43531;52.152;6.366;2023-07-20T02:42:55;2.53;;;2.33;;
57697;SDS011;43531;52.152;6.366;2023-07-20T02:43:27;2.70;;;2.50;;
57697;SDS011;43531;52.152;6.366;2023-07-20T02:43:58;3.58;;;2.75;;
57697;SDS011;43531;52.152;6.366;2023-07-20T02:44:30;3.28;;;2.15;;
57697;SDS011;43531;52.152;6.366;2023-07-20T02:45:04;2.40;;;2.20;;
57697;SDS011;43531;52.152;6.366;2023-07-20T02:45:39;2.30;;;1.98;;
57697;SDS011;43531;52.152;6.366;2023-07-20T02:46:11;2.25;;;2.05;;
57697;SDS011;43531;52.152;6.366;2023-07-20T02:46:43;2.75;;;2.55;;
57697;SDS011;43531;52.152;6.366;2023-07-20T02:47:15;3.95;;;2.38;;
57697;SDS011;43531;52.152;6.366;2023-07-20T02:47:46;2.63;;;2.42;;
57697;SDS011;43531;52.152;6.366;2023-07-20T02:48:18;2.70;;;2.50;;
57697;SDS011;43531;52.152;6.366;2023-07-20T02:48:51;2.53;;;2.33;;
57697;SDS011;43531;52.152;6.366;2023-07-20T02:49:23;5.05;;;2.35;;
57697;SDS011;43531;52.152;6.366;2023-07-20T02:49:54;1.88;;;1.77;;
57697;SDS011;43531;52.152;6.366;2023-07-20T02:50:26;2.67;;;2.47;;
57697;SDS011;43531;52.152;6.366;2023-07-20T02:50:58;2.60;;;2.40;;
57697;SDS011;43531;52.152;6.366;2023-07-20T02:51:29;3.55;;;2.25;;
57697;SDS011;43531;52.152;6.366;2023-07-20T02:52:01;2.42;;;2.22;;
57697;SDS011;43531;52.152;6.366;2023-07-20T02:52:33;2.30;;;2.10;;
57697;SDS011;43531;52.152;6.366;2023-07-20T02:53:04;2.28;;;2.08;;
57697;SDS011;43531;52.152;6.366;2023-07-20T02:53:36;2.10;;;2.00;;
57697;SDS011;43531;52.152;6.366;2023-07-20T02:54:08;2.40;;;2.20;;
57697;SDS011;43531;52.152;6.366;2023-07-20T02:54:39;3.58;;;2.45;;
57697;SDS011;43531;52.152;6.366;2023-07-20T02:55:11;3.72;;;2.53;;
57697;SDS011;43531;52.152;6.366;2023-07-20T02:55:43;2.58;;;2.38;;
57697;SDS011;43531;52.152;6.366;2023-07-20T02:56:14;2.45;;;2.25;;
57697;SDS011;43531;52.152;6.366;2023-07-20T02:56:47;2.75;;;2.50;;
57697;SDS011;43531;52.152;6.366;2023-07-20T02:57:19;2.55;;;2.35;;
57697;SDS011;43531;52.152;6.366;2023-07-20T02:57:50;2.97;;;2.42;;
57697;SDS011;43531;52.152;6.366;2023-07-20T02:58:22;2.60;;;2.40;;
57697;SDS011;43531;52.152;6.366;2023-07-20T02:58:54;2.05;;;1.95;;
57697;SDS011;43531;52.152;6.366;2023-07-20T02:59:25;2.30;;;2.20;;
57697;SDS011;43531;52.152;6.366;2023-07-20T02:59:57;2.15;;;2.05;;
57697;SDS011;43531;52.152;6.366;2023-07-20T03:00:29;6.05;;;2.67;;
57697;SDS011;43531;52.152;6.366;2023-07-20T03:01:00;3.33;;;2.22;;
57697;SDS011;43531;52.152;6.366;2023-07-20T03:01:32;3.65;;;2.88;;
57697;SDS011;43531;52.152;6.366;2023-07-20T03:02:04;2.47;;;2.28;;
57697;SDS011;43531;52.152;6.366;2023-07-20T03:02:36;2.17;;;2.08;;
57697;SDS011;43531;52.152;6.366;2023-07-20T03:03:07;2.10;;;1.92;;
57697;SDS011;43531;52.152;6.366;2023-07-20T03:03:41;2.97;;;2.67;;
57697;SDS011;43531;52.152;6.366;2023-07-20T03:04:18;3.47;;;2.42;;
57697;SDS011;43531;52.152;6.366;2023-07-20T03:04:49;3.78;;;2.17;;
57697;SDS011;43531;52.152;6.366;2023-07-20T03:05:21;2.17;;;2.08;;
57697;SDS011;43531;52.152;6.366;2023-07-20T03:05:56;2.25;;;2.00;;
57697;SDS011;43531;52.152;6.366;2023-07-20T03:06:30;2.22;;;2.13;;
57697;SDS011;43531;52.152;6.366;2023-07-20T03:07:06;3.60;;;2.28;;
57697;SDS011;43531;52.152;6.366;2023-07-20T03:07:38;2.25;;;2.15;;
57697;SDS011;43531;52.152;6.366;2023-07-20T03:08:09;2.15;;;1.95;;
57697;SDS011;43531;52.152;6.366;2023-07-20T03:08:42;2.38;;;2.20;;
57697;SDS011;43531;52.152;6.366;2023-07-20T03:09:17;2.25;;;2.15;;
57697;SDS011;43531;52.152;6.366;2023-07-20T03:09:48;2.30;;;2.10;;
57697;SDS011;43531;52.152;6.366;2023-07-20T03:10:20;3.22;;;2.28;;
57697;SDS011;43531;52.152;6.366;2023-07-20T03:10:52;2.20;;;2.10;;
57697;SDS011;43531;52.152;6.366;2023-07-20T03:11:23;2.40;;;2.00;;
57697;SDS011;43531;52.152;6.366;2023-07-20T03:11:55;5.03;;;2.08;;
57697;SDS011;43531;52.152;6.366;2023-07-20T03:12:27;2.47;;;2.33;;
57697;SDS011;43531;52.152;6.366;2023-07-20T03:12:59;4.05;;;2.20;;
57697;SDS011;43531;52.152;6.366;2023-07-20T03:13:30;2.50;;;2.30;;
57697;SDS011;43531;52.152;6.366;2023-07-20T03:14:02;2.42;;;2.10;;
57697;SDS011;43531;52.152;6.366;2023-07-20T03:14:34;2.38;;;2.17;;
57697;SDS011;43531;52.152;6.366;2023-07-20T03:15:05;2.15;;;2.05;;
57697;SDS011;43531;52.152;6.366;2023-07-20T03:15:38;2.65;;;2.28;;
57697;SDS011;43531;52.152;6.366;2023-07-20T03:16:10;2.47;;;2.30;;
57697;SDS011;43531;52.152;6.366;2023-07-20T03:16:42;2.50;;;2.30;;
57697;SDS011;43531;52.152;6.366;2023-07-20T03:17:15;2.13;;;1.95;;
57697;SDS011;43531;52.152;6.366;2023-07-20T03:17:49;3.90;;;2.47;;
57697;SDS011;43531;52.152;6.366;2023-07-20T03:18:22;2.25;;;2.05;;
57697;SDS011;43531;52.152;6.366;2023-07-20T03:18:54;3.28;;;2.40;;
57697;SDS011;43531;52.152;6.366;2023-07-20T03:19:25;2.90;;;2.15;;
57697;SDS011;43531;52.152;6.366;2023-07-20T03:19:57;2.47;;;2.20;;
57697;SDS011;43531;52.152;6.366;2023-07-20T03:20:28;2.80;;;2.60;;
57697;SDS011;43531;52.152;6.366;2023-07-20T03:21:00;2.63;;;2.40;;
57697;SDS011;43531;52.152;6.366;2023-07-20T03:21:31;2.17;;;1.98;;
57697;SDS011;43531;52.152;6.366;2023-07-20T03:22:03;2.22;;;2.13;;
57697;SDS011;43531;52.152;6.366;2023-07-20T03:22:35;1.60;;;1.50;;
57697;SDS011;43531;52.152;6.366;2023-07-20T03:23:07;1.90;;;1.80;;
57697;SDS011;43531;52.152;6.366;2023-07-20T03:23:39;1.98;;;1.88;;
57697;SDS011;43531;52.152;6.366;2023-07-20T03:24:11;1.95;;;1.85;;